sensor_id;sensor_type;location;lat;lon;timestamp;temperature;humidity
29431;DHT22;16404;49.902;10.074;2023-02-23T00:00:11;12.50;61.10
29431;DHT22;16404;49.902;10.074;2023-02-23T00:03:04;12.50;61.30
29431;DHT22;16404;49.902;10.074;2023-02-23T00:05:49;12.40;61.10
29431;DHT22;16404;49.902;10.074;2023-02-23T00:08:35;12.40;61.10
29431;DHT22;16404;49.902;10.074;2023-02-23T00:11:20;12.40;61.20
29431;DHT22;16404;49.902;10.074;2023-02-23T00:14:05;12.40;61.40
29431;DHT22;16404;49.902;10.074;2023-02-23T00:16:51;12.30;61.50
29431;DHT22;16404;49.902;10.074;2023-02-23T00:19:35;12.30;61.40
29431;DHT22;16404;49.902;10.074;2023-02-23T00:22:21;12.30;61.40
29431;DHT22;16404;49.902;10.074;2023-02-23T00:25:08;12.10;61.50
29431;DHT22;16404;49.902;10.074;2023-02-23T00:27:53;11.90;62.30
29431;DHT22;16404;49.902;10.074;2023-02-23T00:30:38;11.60;62.80
29431;DHT22;16404;49.902;10.074;2023-02-23T00:33:22;11.40;63.40
29431;DHT22;16404;49.902;10.074;2023-02-23T00:36:11;11.40;63.80
29431;DHT22;16404;49.902;10.074;2023-02-23T00:38:57;11.40;63.40
29431;DHT22;16404;49.902;10.074;2023-02-23T00:41:44;11.40;63.00
29431;DHT22;16404;49.902;10.074;2023-02-23T00:44:30;11.40;62.80
29431;DHT22;16404;49.902;10.074;2023-02-23T00:47:16;11.40;62.90
29431;DHT22;16404;49.902;10.074;2023-02-23T00:50:01;11.30;63.10
29431;DHT22;16404;49.902;10.074;2023-02-23T00:52:47;11.30;63.30
29431;DHT22;16404;49.902;10.074;2023-02-23T00:55:31;11.20;64.00
29431;DHT22;16404;49.902;10.074;2023-02-23T00:58:16;11.10;64.50
29431;DHT22;16404;49.902;10.074;2023-02-23T01:01:00;11.10;64.80
29431;DHT22;16404;49.902;10.074;2023-02-23T01:03:45;11.10;64.80
29431;DHT22;16404;49.902;10.074;2023-02-23T01:06:30;11.20;64.40
29431;DHT22;16404;49.902;10.074;2023-02-23T01:09:15;11.30;64.10
29431;DHT22;16404;49.902;10.074;2023-02-23T01:12:10;11.30;64.20
29431;DHT22;16404;49.902;10.074;2023-02-23T01:14:55;11.40;64.90
29431;DHT22;16404;49.902;10.074;2023-02-23T01:17:39;11.30;64.30
29431;DHT22;16404;49.902;10.074;2023-02-23T01:20:28;11.30;64.40
29431;DHT22;16404;49.902;10.074;2023-02-23T01:23:13;11.40;64.50
29431;DHT22;16404;49.902;10.074;2023-02-23T01:25:57;11.50;64.10
29431;DHT22;16404;49.902;10.074;2023-02-23T01:28:42;11.60;63.50
29431;DHT22;16404;49.902;10.074;2023-02-23T01:31:28;11.70;63.40
29431;DHT22;16404;49.902;10.074;2023-02-23T01:34:13;11.80;63.40
29431;DHT22;16404;49.902;10.074;2023-02-23T01:36:58;11.90;63.30
29431;DHT22;16404;49.902;10.074;2023-02-23T01:39:42;11.90;63.10
29431;DHT22;16404;49.902;10.074;2023-02-23T01:42:27;11.90;62.90
29431;DHT22;16404;49.902;10.074;2023-02-23T01:45:35;12.00;62.90
29431;DHT22;16404;49.902;10.074;2023-02-23T01:48:30;12.00;63.00
29431;DHT22;16404;49.902;10.074;2023-02-23T01:51:19;12.00;62.80
29431;DHT22;16404;49.902;10.074;2023-02-23T01:54:10;12.00;62.70
29431;DHT22;16404;49.902;10.074;2023-02-23T01:57:00;12.00;62.80
29431;DHT22;16404;49.902;10.074;2023-02-23T01:59:47;12.00;62.70
29431;DHT22;16404;49.902;10.074;2023-02-23T02:02:32;12.00;62.80
29431;DHT22;16404;49.902;10.074;2023-02-23T02:05:18;12.00;62.70
29431;DHT22;16404;49.902;10.074;2023-02-23T02:08:07;12.00;62.70
29431;DHT22;16404;49.902;10.074;2023-02-23T02:10:55;12.00;62.80
29431;DHT22;16404;49.902;10.074;2023-02-23T02:13:40;12.00;62.80
29431;DHT22;16404;49.902;10.074;2023-02-23T02:22:46;11.90;63.00
29431;DHT22;16404;49.902;10.074;2023-02-23T02:38:36;11.90;63.10
29431;DHT22;16404;49.902;10.074;2023-02-23T02:44:58;11.90;63.30
29431;DHT22;16404;49.902;10.074;2023-02-23T02:47:50;11.80;63.40
29431;DHT22;16404;49.902;10.074;2023-02-23T02:51:07;11.90;63.20
29431;DHT22;16404;49.902;10.074;2023-02-23T02:56:52;11.80;64.50
29431;DHT22;16404;49.902;10.074;2023-02-23T02:59:46;11.70;64.30
29431;DHT22;16404;49.902;10.074;2023-02-23T03:02:50;11.70;64.70
29431;DHT22;16404;49.902;10.074;2023-02-23T03:05:53;11.70;64.90
29431;DHT22;16404;49.902;10.074;2023-02-23T03:19:39;11.90;64.60
29431;DHT22;16404;49.902;10.074;2023-02-23T03:23:21;11.90;64.30
29431;DHT22;16404;49.902;10.074;2023-02-23T03:29:53;12.00;64.50
29431;DHT22;16404;49.902;10.074;2023-02-23T03:33:06;12.00;64.70
29431;DHT22;16404;49.902;10.074;2023-02-23T03:36:18;12.00;64.60
29431;DHT22;16404;49.902;10.074;2023-02-23T03:39:36;12.00;64.50
29431;DHT22;16404;49.902;10.074;2023-02-23T03:42:41;12.00;64.40
29431;DHT22;16404;49.902;10.074;2023-02-23T03:45:47;12.00;64.10
29431;DHT22;16404;49.902;10.074;2023-02-23T03:48:53;12.00;64.00
29431;DHT22;16404;49.902;10.074;2023-02-23T03:52:06;12.00;64.10
29431;DHT22;16404;49.902;10.074;2023-02-23T03:55:16;12.00;64.00
29431;DHT22;16404;49.902;10.074;2023-02-23T03:58:28;12.00;63.90
29431;DHT22;16404;49.902;10.074;2023-02-23T04:01:32;12.00;63.80
29431;DHT22;16404;49.902;10.074;2023-02-23T04:04:38;12.00;63.60
29431;DHT22;16404;49.902;10.074;2023-02-23T04:07:43;12.00;63.60
29431;DHT22;16404;49.902;10.074;2023-02-23T04:10:57;12.00;63.50
29431;DHT22;16404;49.902;10.074;2023-02-23T04:14:04;12.00;63.60
29431;DHT22;16404;49.902;10.074;2023-02-23T04:16:52;12.00;63.80
29431;DHT22;16404;49.902;10.074;2023-02-23T04:19:37;12.00;63.90
29431;DHT22;16404;49.902;10.074;2023-02-23T04:22:22;12.00;64.00
29431;DHT22;16404;49.902;10.074;2023-02-23T04:25:08;12.00;63.90
29431;DHT22;16404;49.902;10.074;2023-02-23T04:27:53;12.00;64.00
29431;DHT22;16404;49.902;10.074;2023-02-23T04:30:37;12.00;63.90
29431;DHT22;16404;49.902;10.074;2023-02-23T04:33:22;12.00;64.00
29431;DHT22;16404;49.902;10.074;2023-02-23T04:36:08;12.00;64.00
29431;DHT22;16404;49.902;10.074;2023-02-23T04:38:53;12.00;63.90
29431;DHT22;16404;49.902;10.074;2023-02-23T04:41:37;12.00;63.80
29431;DHT22;16404;49.902;10.074;2023-02-23T04:44:22;12.00;64.10
29431;DHT22;16404;49.902;10.074;2023-02-23T04:47:06;12.00;64.60
29431;DHT22;16404;49.902;10.074;2023-02-23T04:49:52;12.10;64.90
29431;DHT22;16404;49.902;10.074;2023-02-23T04:52:37;12.00;64.90
29431;DHT22;16404;49.902;10.074;2023-02-23T04:55:23;12.10;65.20
29431;DHT22;16404;49.902;10.074;2023-02-23T04:58:09;12.10;65.40
29431;DHT22;16404;49.902;10.074;2023-02-23T05:01:03;12.10;65.40
29431;DHT22;16404;49.902;10.074;2023-02-23T05:03:49;12.00;65.80
29431;DHT22;16404;49.902;10.074;2023-02-23T05:06:33;12.00;66.00
29431;DHT22;16404;49.902;10.074;2023-02-23T05:09:18;12.10;65.80
29431;DHT22;16404;49.902;10.074;2023-02-23T05:12:02;12.10;65.60
29431;DHT22;16404;49.902;10.074;2023-02-23T05:14:47;12.00;65.90
29431;DHT22;16404;49.902;10.074;2023-02-23T05:17:31;12.00;66.40
29431;DHT22;16404;49.902;10.074;2023-02-23T05:20:16;12.00;66.70
29431;DHT22;16404;49.902;10.074;2023-02-23T05:23:01;12.10;66.80
29431;DHT22;16404;49.902;10.074;2023-02-23T05:25:45;12.10;66.70
29431;DHT22;16404;49.902;10.074;2023-02-23T05:28:30;12.00;66.90
29431;DHT22;16404;49.902;10.074;2023-02-23T05:31:14;12.10;67.10
29431;DHT22;16404;49.902;10.074;2023-02-23T05:33:59;12.10;67.00
29431;DHT22;16404;49.902;10.074;2023-02-23T05:36:43;12.20;66.90
29431;DHT22;16404;49.902;10.074;2023-02-23T05:39:28;12.20;66.70
29431;DHT22;16404;49.902;10.074;2023-02-23T05:42:13;12.20;66.60
29431;DHT22;16404;49.902;10.074;2023-02-23T05:44:58;12.20;66.50
29431;DHT22;16404;49.902;10.074;2023-02-23T05:47:42;12.30;66.60
29431;DHT22;16404;49.902;10.074;2023-02-23T05:50:27;12.30;66.50
29431;DHT22;16404;49.902;10.074;2023-02-23T05:53:12;12.30;66.50
29431;DHT22;16404;49.902;10.074;2023-02-23T05:55:57;12.30;66.60
29431;DHT22;16404;49.902;10.074;2023-02-23T05:58:41;12.40;66.60
29431;DHT22;16404;49.902;10.074;2023-02-23T06:01:26;12.40;66.60
29431;DHT22;16404;49.902;10.074;2023-02-23T06:04:11;12.40;66.50
29431;DHT22;16404;49.902;10.074;2023-02-23T06:06:56;12.40;66.60
29431;DHT22;16404;49.902;10.074;2023-02-23T06:09:40;12.30;66.60
29431;DHT22;16404;49.902;10.074;2023-02-23T06:12:25;12.30;66.70
29431;DHT22;16404;49.902;10.074;2023-02-23T06:15:10;12.30;66.80
29431;DHT22;16404;49.902;10.074;2023-02-23T06:17:54;12.30;66.80
29431;DHT22;16404;49.902;10.074;2023-02-23T06:20:39;12.30;66.80
29431;DHT22;16404;49.902;10.074;2023-02-23T06:23:23;12.40;66.70
29431;DHT22;16404;49.902;10.074;2023-02-23T06:26:08;12.40;66.60
29431;DHT22;16404;49.902;10.074;2023-02-23T06:28:53;12.40;66.90
29431;DHT22;16404;49.902;10.074;2023-02-23T06:31:38;12.30;67.00
29431;DHT22;16404;49.902;10.074;2023-02-23T06:34:22;12.30;67.10
29431;DHT22;16404;49.902;10.074;2023-02-23T06:37:06;12.40;67.40
29431;DHT22;16404;49.902;10.074;2023-02-23T06:39:51;12.40;67.50
29431;DHT22;16404;49.902;10.074;2023-02-23T06:42:35;12.40;67.70
29431;DHT22;16404;49.902;10.074;2023-02-23T06:45:20;12.30;67.70
29431;DHT22;16404;49.902;10.074;2023-02-23T06:48:05;12.40;67.90
29431;DHT22;16404;49.902;10.074;2023-02-23T06:50:49;12.40;67.90
29431;DHT22;16404;49.902;10.074;2023-02-23T06:53:35;12.50;67.70
29431;DHT22;16404;49.902;10.074;2023-02-23T06:56:19;12.40;67.60
29431;DHT22;16404;49.902;10.074;2023-02-23T06:59:04;12.40;67.90
29431;DHT22;16404;49.902;10.074;2023-02-23T07:01:48;12.40;68.10
29431;DHT22;16404;49.902;10.074;2023-02-23T07:04:33;12.50;68.40
29431;DHT22;16404;49.902;10.074;2023-02-23T07:07:18;12.50;68.60
29431;DHT22;16404;49.902;10.074;2023-02-23T07:10:03;12.50;68.70
29431;DHT22;16404;49.902;10.074;2023-02-23T07:12:48;12.60;68.80
29431;DHT22;16404;49.902;10.074;2023-02-23T07:15:37;12.60;68.70
29431;DHT22;16404;49.902;10.074;2023-02-23T07:18:22;12.60;68.90
29431;DHT22;16404;49.902;10.074;2023-02-23T07:21:06;12.60;68.90
29431;DHT22;16404;49.902;10.074;2023-02-23T07:23:51;12.70;69.00
29431;DHT22;16404;49.902;10.074;2023-02-23T07:26:36;12.70;69.00
29431;DHT22;16404;49.902;10.074;2023-02-23T07:29:20;12.70;69.00
29431;DHT22;16404;49.902;10.074;2023-02-23T07:32:07;12.80;69.00
29431;DHT22;16404;49.902;10.074;2023-02-23T07:34:51;12.80;69.10
29431;DHT22;16404;49.902;10.074;2023-02-23T07:37:36;12.80;69.10
29431;DHT22;16404;49.902;10.074;2023-02-23T07:40:21;12.90;69.20
29431;DHT22;16404;49.902;10.074;2023-02-23T07:43:06;12.90;69.20
29431;DHT22;16404;49.902;10.074;2023-02-23T07:45:51;12.90;69.90
29431;DHT22;16404;49.902;10.074;2023-02-23T07:48:35;13.10;68.90
29431;DHT22;16404;49.902;10.074;2023-02-23T07:51:21;13.10;68.60
29431;DHT22;16404;49.902;10.074;2023-02-23T07:54:06;13.10;68.80
29431;DHT22;16404;49.902;10.074;2023-02-23T07:56:51;13.10;68.90
29431;DHT22;16404;49.902;10.074;2023-02-23T07:59:36;13.20;68.90
29431;DHT22;16404;49.902;10.074;2023-02-23T08:02:21;13.20;68.90
29431;DHT22;16404;49.902;10.074;2023-02-23T08:05:06;13.20;68.90
29431;DHT22;16404;49.902;10.074;2023-02-23T08:07:51;13.30;68.80
29431;DHT22;16404;49.902;10.074;2023-02-23T08:10:39;13.30;68.80
29431;DHT22;16404;49.902;10.074;2023-02-23T08:13:23;13.30;68.90
29431;DHT22;16404;49.902;10.074;2023-02-23T08:16:08;13.40;69.00
29431;DHT22;16404;49.902;10.074;2023-02-23T08:18:55;13.50;69.10
29431;DHT22;16404;49.902;10.074;2023-02-23T08:21:41;13.50;69.20
29431;DHT22;16404;49.902;10.074;2023-02-23T08:24:26;13.60;69.20
29431;DHT22;16404;49.902;10.074;2023-02-23T08:27:13;13.70;69.10
29431;DHT22;16404;49.902;10.074;2023-02-23T08:29:57;13.80;69.30
29431;DHT22;16404;49.902;10.074;2023-02-23T08:32:44;13.80;69.30
29431;DHT22;16404;49.902;10.074;2023-02-23T08:35:28;13.90;69.20
29431;DHT22;16404;49.902;10.074;2023-02-23T08:38:14;14.00;69.30
29431;DHT22;16404;49.902;10.074;2023-02-23T08:41:00;14.10;69.20
29431;DHT22;16404;49.902;10.074;2023-02-23T08:43:45;14.10;69.00
29431;DHT22;16404;49.902;10.074;2023-02-23T08:46:30;14.20;69.00
29431;DHT22;16404;49.902;10.074;2023-02-23T08:49:14;14.20;69.20
29431;DHT22;16404;49.902;10.074;2023-02-23T08:51:59;14.20;69.00
29431;DHT22;16404;49.902;10.074;2023-02-23T08:54:44;14.20;69.70
29431;DHT22;16404;49.902;10.074;2023-02-23T08:57:31;14.30;69.20
29431;DHT22;16404;49.902;10.074;2023-02-23T09:00:16;14.30;69.30
29431;DHT22;16404;49.902;10.074;2023-02-23T09:03:01;14.40;68.90
29431;DHT22;16404;49.902;10.074;2023-02-23T09:05:45;14.60;68.50
29431;DHT22;16404;49.902;10.074;2023-02-23T09:08:30;14.70;67.80
29431;DHT22;16404;49.902;10.074;2023-02-23T09:11:14;14.70;67.70
29431;DHT22;16404;49.902;10.074;2023-02-23T09:13:59;14.80;67.70
29431;DHT22;16404;49.902;10.074;2023-02-23T09:16:43;14.80;67.60
29431;DHT22;16404;49.902;10.074;2023-02-23T09:19:28;14.90;67.60
29431;DHT22;16404;49.902;10.074;2023-02-23T09:22:13;14.90;67.70
29431;DHT22;16404;49.902;10.074;2023-02-23T09:24:57;14.90;67.70
29431;DHT22;16404;49.902;10.074;2023-02-23T09:27:42;14.90;67.70
29431;DHT22;16404;49.902;10.074;2023-02-23T09:30:27;15.00;67.80
29431;DHT22;16404;49.902;10.074;2023-02-23T09:33:12;15.00;67.80
29431;DHT22;16404;49.902;10.074;2023-02-23T09:35:56;15.10;67.60
29431;DHT22;16404;49.902;10.074;2023-02-23T09:38:46;15.10;67.30
29431;DHT22;16404;49.902;10.074;2023-02-23T09:48:25;15.10;67.10
29431;DHT22;16404;49.902;10.074;2023-02-23T09:51:16;15.10;66.90
29431;DHT22;16404;49.902;10.074;2023-02-23T09:54:02;15.10;66.80
29431;DHT22;16404;49.902;10.074;2023-02-23T09:56:48;15.20;66.80
29431;DHT22;16404;49.902;10.074;2023-02-23T09:59:35;15.20;66.90
29431;DHT22;16404;49.902;10.074;2023-02-23T10:02:36;15.20;66.90
29431;DHT22;16404;49.902;10.074;2023-02-23T10:05:23;15.10;67.10
29431;DHT22;16404;49.902;10.074;2023-02-23T10:23:34;15.10;68.50
29431;DHT22;16404;49.902;10.074;2023-02-23T10:26:28;15.10;68.40
29431;DHT22;16404;49.902;10.074;2023-02-23T10:32:06;15.30;68.50
29431;DHT22;16404;49.902;10.074;2023-02-23T10:34:55;15.20;68.60
29431;DHT22;16404;49.902;10.074;2023-02-23T10:37:40;15.10;69.10
29431;DHT22;16404;49.902;10.074;2023-02-23T10:40:26;15.20;69.30
29431;DHT22;16404;49.902;10.074;2023-02-23T10:43:12;15.30;69.00
29431;DHT22;16404;49.902;10.074;2023-02-23T10:45:57;15.40;69.00
29431;DHT22;16404;49.902;10.074;2023-02-23T10:48:42;15.30;68.90
29431;DHT22;16404;49.902;10.074;2023-02-23T10:51:35;15.30;69.20
29431;DHT22;16404;49.902;10.074;2023-02-23T10:54:41;15.20;69.30
29431;DHT22;16404;49.902;10.074;2023-02-23T10:57:33;15.10;69.20
29431;DHT22;16404;49.902;10.074;2023-02-23T11:00:21;15.00;69.60
29431;DHT22;16404;49.902;10.074;2023-02-23T11:03:25;15.10;69.60
29431;DHT22;16404;49.902;10.074;2023-02-23T11:06:33;15.20;69.50
29431;DHT22;16404;49.902;10.074;2023-02-23T11:09:26;15.20;69.20
29431;DHT22;16404;49.902;10.074;2023-02-23T11:15:27;15.10;69.20
29431;DHT22;16404;49.902;10.074;2023-02-23T11:18:19;15.10;69.30
29431;DHT22;16404;49.902;10.074;2023-02-23T11:21:11;15.10;69.30
29431;DHT22;16404;49.902;10.074;2023-02-23T11:23:57;15.20;69.10
29431;DHT22;16404;49.902;10.074;2023-02-23T11:26:43;15.30;69.10
29431;DHT22;16404;49.902;10.074;2023-02-23T11:29:31;15.40;68.80
29431;DHT22;16404;49.902;10.074;2023-02-23T11:32:20;15.40;68.90
29431;DHT22;16404;49.902;10.074;2023-02-23T11:41:27;15.80;68.80
29431;DHT22;16404;49.902;10.074;2023-02-23T11:44:20;15.80;68.70
29431;DHT22;16404;49.902;10.074;2023-02-23T11:47:20;15.90;68.60
29431;DHT22;16404;49.902;10.074;2023-02-23T11:50:06;16.00;68.50
29431;DHT22;16404;49.902;10.074;2023-02-23T11:53:10;16.10;68.30
29431;DHT22;16404;49.902;10.074;2023-02-23T11:56:01;16.20;68.60
29431;DHT22;16404;49.902;10.074;2023-02-23T11:58:52;16.50;68.40
29431;DHT22;16404;49.902;10.074;2023-02-23T12:01:40;16.60;68.30
29431;DHT22;16404;49.902;10.074;2023-02-23T12:04:36;16.60;68.10
29431;DHT22;16404;49.902;10.074;2023-02-23T12:10:29;16.70;67.80
29431;DHT22;16404;49.902;10.074;2023-02-23T12:16:25;16.90;67.50
29431;DHT22;16404;49.902;10.074;2023-02-23T12:22:14;17.20;66.40
29431;DHT22;16404;49.902;10.074;2023-02-23T12:25:19;17.30;66.10
29431;DHT22;16404;49.902;10.074;2023-02-23T12:28:21;17.40;65.30
29431;DHT22;16404;49.902;10.074;2023-02-23T12:31:25;17.40;65.00
29431;DHT22;16404;49.902;10.074;2023-02-23T12:34:26;17.50;64.80
29431;DHT22;16404;49.902;10.074;2023-02-23T12:40:34;17.40;64.80
29431;DHT22;16404;49.902;10.074;2023-02-23T12:43:46;17.40;64.30
29431;DHT22;16404;49.902;10.074;2023-02-23T12:46:46;17.50;64.30
29431;DHT22;16404;49.902;10.074;2023-02-23T12:49:43;17.50;64.10
29431;DHT22;16404;49.902;10.074;2023-02-23T12:52:31;17.50;64.00
29431;DHT22;16404;49.902;10.074;2023-02-23T12:58:41;17.60;63.70
29431;DHT22;16404;49.902;10.074;2023-02-23T13:01:35;17.50;63.60
29431;DHT22;16404;49.902;10.074;2023-02-23T13:11:26;17.60;63.30
29431;DHT22;16404;49.902;10.074;2023-02-23T13:20:34;17.80;62.80
29431;DHT22;16404;49.902;10.074;2023-02-23T13:29:47;17.90;62.50
29431;DHT22;16404;49.902;10.074;2023-02-23T13:32:33;17.90;62.70
29431;DHT22;16404;49.902;10.074;2023-02-23T13:35:20;17.90;62.30
29431;DHT22;16404;49.902;10.074;2023-02-23T13:38:16;17.90;62.10
29431;DHT22;16404;49.902;10.074;2023-02-23T13:41:40;18.00;62.20
29431;DHT22;16404;49.902;10.074;2023-02-23T13:48:05;17.90;60.90
29431;DHT22;16404;49.902;10.074;2023-02-23T13:50:54;17.80;61.20
29431;DHT22;16404;49.902;10.074;2023-02-23T13:54:20;17.80;61.40
29431;DHT22;16404;49.902;10.074;2023-02-23T13:56:56;17.80;61.20
29431;DHT22;16404;49.902;10.074;2023-02-23T13:59:43;17.80;61.10
29431;DHT22;16404;49.902;10.074;2023-02-23T14:05:20;17.90;60.60
29431;DHT22;16404;49.902;10.074;2023-02-23T14:08:36;17.90;60.60
29431;DHT22;16404;49.902;10.074;2023-02-23T14:23:14;17.50;60.50
29431;DHT22;16404;49.902;10.074;2023-02-23T14:29:16;17.50;60.40
29431;DHT22;16404;49.902;10.074;2023-02-23T14:35:34;17.60;59.80
29431;DHT22;16404;49.902;10.074;2023-02-23T14:38:31;17.50;60.00
29431;DHT22;16404;49.902;10.074;2023-02-23T14:41:28;17.50;60.00
29431;DHT22;16404;49.902;10.074;2023-02-23T14:47:24;17.50;60.30
29431;DHT22;16404;49.902;10.074;2023-02-23T14:50:12;17.50;60.30
29431;DHT22;16404;49.902;10.074;2023-02-23T14:53:01;17.50;60.20
29431;DHT22;16404;49.902;10.074;2023-02-23T14:55:47;17.50;60.20
29431;DHT22;16404;49.902;10.074;2023-02-23T14:58:32;17.50;60.00
29431;DHT22;16404;49.902;10.074;2023-02-23T15:01:34;17.50;59.80
29431;DHT22;16404;49.902;10.074;2023-02-23T15:04:22;17.50;59.50
29431;DHT22;16404;49.902;10.074;2023-02-23T15:07:53;17.50;59.30
29431;DHT22;16404;49.902;10.074;2023-02-23T15:10:23;17.50;59.20
29431;DHT22;16404;49.902;10.074;2023-02-23T15:13:32;17.40;59.50
29431;DHT22;16404;49.902;10.074;2023-02-23T15:16:27;17.40;60.10
29431;DHT22;16404;49.902;10.074;2023-02-23T15:19:23;17.30;60.40
29431;DHT22;16404;49.902;10.074;2023-02-23T15:22:33;17.20;60.60
29431;DHT22;16404;49.902;10.074;2023-02-23T15:25:21;17.30;60.60
29431;DHT22;16404;49.902;10.074;2023-02-23T15:28:21;17.20;60.60
29431;DHT22;16404;49.902;10.074;2023-02-23T15:31:09;17.20;60.40
29431;DHT22;16404;49.902;10.074;2023-02-23T15:33:55;17.30;60.20
29431;DHT22;16404;49.902;10.074;2023-02-23T15:36:42;17.30;60.00
29431;DHT22;16404;49.902;10.074;2023-02-23T15:42:57;17.20;60.30
29431;DHT22;16404;49.902;10.074;2023-02-23T15:45:53;17.20;60.30
29431;DHT22;16404;49.902;10.074;2023-02-23T15:48:45;17.20;60.30
29431;DHT22;16404;49.902;10.074;2023-02-23T15:51:37;17.20;60.00
29431;DHT22;16404;49.902;10.074;2023-02-23T15:54:27;17.20;60.10
29431;DHT22;16404;49.902;10.074;2023-02-23T15:57:25;17.10;61.10
29431;DHT22;16404;49.902;10.074;2023-02-23T16:00:18;17.10;60.40
29431;DHT22;16404;49.902;10.074;2023-02-23T16:03:18;17.00;60.40
29431;DHT22;16404;49.902;10.074;2023-02-23T16:06:16;17.00;60.50
29431;DHT22;16404;49.902;10.074;2023-02-23T16:09:11;16.90;60.70
29431;DHT22;16404;49.902;10.074;2023-02-23T16:12:11;16.80;60.90
29431;DHT22;16404;49.902;10.074;2023-02-23T16:18:05;16.70;61.60
29431;DHT22;16404;49.902;10.074;2023-02-23T16:20:51;16.70;61.60
29431;DHT22;16404;49.902;10.074;2023-02-23T16:23:44;16.60;61.90
29431;DHT22;16404;49.902;10.074;2023-02-23T16:26:44;16.60;62.20
29431;DHT22;16404;49.902;10.074;2023-02-23T16:29:33;16.50;62.20
29431;DHT22;16404;49.902;10.074;2023-02-23T16:32:32;16.50;62.30
29431;DHT22;16404;49.902;10.074;2023-02-23T16:35:19;16.50;62.60
29431;DHT22;16404;49.902;10.074;2023-02-23T16:38:14;16.40;62.50
29431;DHT22;16404;49.902;10.074;2023-02-23T16:40:59;16.40;62.80
29431;DHT22;16404;49.902;10.074;2023-02-23T16:43:47;16.40;62.70
29431;DHT22;16404;49.902;10.074;2023-02-23T16:49:37;16.20;63.20
29431;DHT22;16404;49.902;10.074;2023-02-23T16:52:22;16.20;63.20
29431;DHT22;16404;49.902;10.074;2023-02-23T16:55:07;16.10;63.20
29431;DHT22;16404;49.902;10.074;2023-02-23T16:58:02;16.10;63.20
29431;DHT22;16404;49.902;10.074;2023-02-23T17:00:47;16.00;63.30
29431;DHT22;16404;49.902;10.074;2023-02-23T17:03:32;16.00;63.20
29431;DHT22;16404;49.902;10.074;2023-02-23T17:06:17;16.00;63.20
29431;DHT22;16404;49.902;10.074;2023-02-23T17:09:02;15.90;63.10
29431;DHT22;16404;49.902;10.074;2023-02-23T17:11:47;15.80;63.10
29431;DHT22;16404;49.902;10.074;2023-02-23T17:14:31;15.80;63.20
29431;DHT22;16404;49.902;10.074;2023-02-23T17:17:17;15.80;63.10
29431;DHT22;16404;49.902;10.074;2023-02-23T17:20:02;15.80;62.90
29431;DHT22;16404;49.902;10.074;2023-02-23T17:22:48;15.70;63.00
29431;DHT22;16404;49.902;10.074;2023-02-23T17:25:33;15.70;63.00
29431;DHT22;16404;49.902;10.074;2023-02-23T17:28:18;15.60;63.20
29431;DHT22;16404;49.902;10.074;2023-02-23T17:31:02;15.60;63.20
29431;DHT22;16404;49.902;10.074;2023-02-23T17:33:47;15.50;63.30
29431;DHT22;16404;49.902;10.074;2023-02-23T17:36:32;15.50;63.50
29431;DHT22;16404;49.902;10.074;2023-02-23T17:39:17;15.50;63.60
29431;DHT22;16404;49.902;10.074;2023-02-23T17:42:02;15.50;63.60
29431;DHT22;16404;49.902;10.074;2023-02-23T17:44:46;15.50;63.60
29431;DHT22;16404;49.902;10.074;2023-02-23T17:47:32;15.40;63.40
29431;DHT22;16404;49.902;10.074;2023-02-23T17:50:18;15.30;63.60
29431;DHT22;16404;49.902;10.074;2023-02-23T17:53:05;15.30;63.80
29431;DHT22;16404;49.902;10.074;2023-02-23T17:55:52;15.30;63.80
29431;DHT22;16404;49.902;10.074;2023-02-23T17:58:36;15.20;63.80
29431;DHT22;16404;49.902;10.074;2023-02-23T18:01:21;15.20;64.00
29431;DHT22;16404;49.902;10.074;2023-02-23T18:04:06;15.20;64.10
29431;DHT22;16404;49.902;10.074;2023-02-23T18:06:50;15.20;64.10
29431;DHT22;16404;49.902;10.074;2023-02-23T18:09:35;15.10;64.10
29431;DHT22;16404;49.902;10.074;2023-02-23T18:12:20;15.10;64.40
29431;DHT22;16404;49.902;10.074;2023-02-23T18:15:05;15.20;64.20
29431;DHT22;16404;49.902;10.074;2023-02-23T18:17:50;15.10;64.00
29431;DHT22;16404;49.902;10.074;2023-02-23T18:20:37;15.10;64.40
29431;DHT22;16404;49.902;10.074;2023-02-23T18:23:24;15.10;65.00
29431;DHT22;16404;49.902;10.074;2023-02-23T18:26:12;15.00;64.80
29431;DHT22;16404;49.902;10.074;2023-02-23T18:28:56;15.00;64.90
29431;DHT22;16404;49.902;10.074;2023-02-23T18:31:41;14.90;65.00
29431;DHT22;16404;49.902;10.074;2023-02-23T18:34:27;14.90;65.10
29431;DHT22;16404;49.902;10.074;2023-02-23T18:37:12;14.90;65.10
29431;DHT22;16404;49.902;10.074;2023-02-23T18:39:56;14.90;65.10
29431;DHT22;16404;49.902;10.074;2023-02-23T18:42:42;14.80;64.90
29431;DHT22;16404;49.902;10.074;2023-02-23T18:45:27;14.80;64.90
29431;DHT22;16404;49.902;10.074;2023-02-23T18:48:11;14.90;64.80
29431;DHT22;16404;49.902;10.074;2023-02-23T18:50:57;14.80;64.70
29431;DHT22;16404;49.902;10.074;2023-02-23T18:53:42;14.80;64.80
29431;DHT22;16404;49.902;10.074;2023-02-23T18:56:27;14.80;64.80
29431;DHT22;16404;49.902;10.074;2023-02-23T18:59:13;14.80;64.80
29431;DHT22;16404;49.902;10.074;2023-02-23T19:01:57;14.80;64.80
29431;DHT22;16404;49.902;10.074;2023-02-23T19:04:42;14.70;64.80
29431;DHT22;16404;49.902;10.074;2023-02-23T19:07:27;14.70;64.80
29431;DHT22;16404;49.902;10.074;2023-02-23T19:10:12;14.70;64.80
29431;DHT22;16404;49.902;10.074;2023-02-23T19:12:58;14.70;64.80
29431;DHT22;16404;49.902;10.074;2023-02-23T19:15:43;14.70;64.90
29431;DHT22;16404;49.902;10.074;2023-02-23T19:18:27;14.70;64.90
29431;DHT22;16404;49.902;10.074;2023-02-23T19:21:13;14.70;64.80
29431;DHT22;16404;49.902;10.074;2023-02-23T19:23:58;14.60;64.80
29431;DHT22;16404;49.902;10.074;2023-02-23T19:26:44;14.60;64.70
29431;DHT22;16404;49.902;10.074;2023-02-23T19:29:29;14.50;64.80
29431;DHT22;16404;49.902;10.074;2023-02-23T19:32:23;14.50;64.80
29431;DHT22;16404;49.902;10.074;2023-02-23T19:35:20;14.50;64.70
29431;DHT22;16404;49.902;10.074;2023-02-23T19:38:15;14.50;64.90
29431;DHT22;16404;49.902;10.074;2023-02-23T19:41:14;14.60;65.20
29431;DHT22;16404;49.902;10.074;2023-02-23T19:44:09;14.50;64.70
29431;DHT22;16404;49.902;10.074;2023-02-23T19:47:00;14.50;64.70
29431;DHT22;16404;49.902;10.074;2023-02-23T19:50:13;14.50;64.90
29431;DHT22;16404;49.902;10.074;2023-02-23T19:53:02;14.50;65.20
29431;DHT22;16404;49.902;10.074;2023-02-23T19:55:47;14.50;65.00
29431;DHT22;16404;49.902;10.074;2023-02-23T20:10:39;14.10;65.30